createdAt,value
2018-07-08T00:02:26.350Z,22.00
2018-07-08T00:07:21.773Z,21.90
2018-07-08T00:09:49.440Z,21.90
2018-07-08T00:12:17.075Z,21.80
2018-07-08T00:14:44.810Z,21.80
2018-07-08T00:17:12.582Z,21.70
2018-07-08T00:19:40.256Z,21.70
2018-07-08T00:22:08.012Z,21.70
2018-07-08T00:24:35.680Z,21.60
2018-07-08T00:29:31.100Z,21.60
2018-07-08T00:31:58.716Z,21.50
2018-07-08T00:34:26.349Z,21.50
2018-07-08T00:36:54.423Z,21.40
2018-07-08T00:39:22.103Z,21.50
2018-07-08T00:41:49.750Z,21.40
2018-07-08T00:44:17.359Z,21.40
2018-07-08T00:46:45.000Z,21.30
2018-07-08T00:49:12.575Z,21.30
2018-07-08T00:51:40.208Z,21.30
2018-07-08T00:54:08.131Z,21.30
2018-07-08T00:56:35.731Z,21.20
2018-07-08T00:59:03.341Z,21.20
2018-07-08T01:01:31.049Z,21.20
2018-07-08T01:03:58.770Z,21.10
2018-07-08T01:06:26.444Z,21.10
2018-07-08T01:08:54.160Z,21.10
2018-07-08T01:11:21.823Z,21.00
2018-07-08T01:13:49.503Z,21.00
2018-07-08T01:16:17.147Z,20.90
2018-07-08T01:18:44.804Z,20.90
2018-07-08T01:21:12.436Z,20.80
2018-07-08T01:26:11.335Z,20.80
2018-07-08T01:28:39.944Z,20.70
2018-07-08T01:31:08.072Z,20.70
2018-07-08T01:33:35.778Z,20.70
2018-07-08T01:36:03.468Z,20.60
2018-07-08T01:38:31.224Z,20.60
2018-07-08T01:40:58.880Z,20.50
2018-07-08T01:43:26.883Z,20.50
2018-07-08T01:45:54.484Z,20.40
2018-07-08T01:48:22.152Z,20.40
2018-07-08T01:50:49.871Z,20.40
2018-07-08T01:53:17.548Z,20.30
2018-07-08T01:55:45.227Z,20.30
2018-07-08T01:58:12.876Z,20.20
2018-07-08T02:00:40.556Z,20.20
2018-07-08T02:03:08.380Z,20.20
2018-07-08T02:05:36.100Z,20.10
2018-07-08T02:08:03.835Z,20.10
2018-07-08T02:10:31.480Z,20.10
2018-07-08T02:12:59.172Z,20.00
2018-07-08T02:17:54.589Z,20.00
2018-07-08T02:20:22.183Z,19.90
2018-07-08T02:22:49.838Z,19.90
2018-07-08T02:25:17.500Z,19.90
2018-07-08T02:27:45.153Z,19.90
2018-07-08T02:32:40.496Z,19.80
2018-07-08T02:35:08.148Z,19.80
2018-07-08T02:37:35.756Z,19.70
2018-07-08T02:40:03.840Z,19.70
2018-07-08T02:42:31.709Z,19.70
2018-07-08T02:44:59.341Z,19.60
2018-07-08T02:49:55.116Z,19.50
2018-07-08T02:52:22.980Z,19.50
2018-07-08T02:54:50.625Z,19.40
2018-07-08T02:57:18.367Z,19.40
2018-07-08T02:59:46.364Z,19.40
2018-07-08T03:02:13.983Z,19.30
2018-07-08T03:04:41.799Z,19.30
2018-07-08T03:07:09.628Z,19.20
2018-07-08T03:09:37.283Z,19.20
2018-07-08T03:12:04.972Z,19.20
2018-07-08T03:14:32.624Z,19.20
2018-07-08T03:17:00.264Z,19.20
2018-07-08T03:19:27.960Z,19.10
2018-07-08T03:21:55.609Z,19.10
2018-07-08T03:24:23.272Z,19.10
2018-07-08T03:31:46.282Z,19.00
2018-07-08T03:34:13.896Z,19.00
2018-07-08T03:36:41.531Z,19.00
2018-07-08T03:39:09.859Z,18.90
2018-07-08T03:41:37.711Z,19.00
2018-07-08T03:44:06.092Z,19.00
2018-07-08T03:46:34.212Z,18.90
2018-07-08T03:49:01.823Z,18.90
2018-07-08T03:51:29.676Z,18.90
2018-07-08T03:53:57.586Z,19.00
2018-07-08T03:56:25.317Z,18.90
2018-07-08T03:58:53.297Z,19.00
2018-07-08T04:01:20.985Z,18.90
2018-07-08T04:03:50.033Z,19.00
2018-07-08T04:08:45.412Z,19.00
2018-07-08T04:11:13.108Z,19.00
2018-07-08T04:16:09.547Z,19.00
2018-07-08T04:18:37.260Z,19.10
2018-07-08T04:21:04.960Z,19.10
2018-07-08T04:23:32.631Z,19.10
2018-07-08T04:26:00.236Z,19.10
2018-07-08T04:28:27.863Z,19.20
2018-07-08T04:30:55.604Z,19.20
2018-07-08T04:33:23.239Z,19.20
2018-07-08T04:38:18.647Z,19.30
2018-07-08T04:40:46.504Z,19.30
2018-07-08T04:43:14.131Z,19.30
2018-07-08T04:45:44.339Z,19.30
2018-07-08T04:48:12.000Z,19.30
2018-07-08T04:50:39.613Z,19.30
2018-07-08T04:53:07.224Z,19.30
2018-07-08T04:55:34.836Z,19.30
2018-07-08T04:58:02.489Z,19.30
2018-07-08T05:02:58.264Z,19.30
2018-07-08T05:05:25.855Z,19.30
2018-07-08T05:07:53.459Z,19.30
2018-07-08T05:10:21.116Z,19.30
2018-07-08T05:12:48.752Z,19.40
2018-07-08T05:15:16.380Z,19.40
2018-07-08T05:17:44.043Z,19.40
2018-07-08T05:20:11.764Z,19.40
2018-07-08T05:22:39.345Z,19.40
2018-07-08T05:25:07.036Z,19.50
2018-07-08T05:32:30.229Z,19.60
2018-07-08T05:34:57.832Z,19.60
2018-07-08T05:37:25.534Z,19.70
2018-07-08T05:39:53.219Z,19.70
2018-07-08T05:42:20.896Z,19.80
2018-07-08T05:44:48.524Z,19.90
2018-07-08T05:47:16.233Z,20.00
2018-07-08T05:49:44.032Z,20.00
2018-07-08T05:52:11.699Z,20.20
2018-07-08T05:57:07.040Z,20.40
2018-07-08T05:59:34.694Z,20.50
2018-07-08T06:02:02.302Z,20.60
2018-07-08T06:04:30.042Z,20.70
2018-07-08T06:06:57.765Z,20.90
2018-07-08T06:09:25.959Z,21.00
2018-07-08T06:11:53.712Z,21.20
2018-07-08T06:14:21.350Z,21.40
2018-07-08T06:16:49.050Z,21.50
2018-07-08T06:19:16.715Z,21.80
2018-07-08T06:21:44.391Z,22.00
2018-07-08T06:26:39.892Z,22.70
2018-07-08T06:29:07.525Z,23.00
2018-07-08T06:31:35.139Z,23.30
2018-07-08T06:34:02.924Z,23.70
2018-07-08T06:36:34.447Z,24.00
2018-07-08T06:39:03.495Z,24.40
2018-07-08T06:41:31.104Z,24.70
2018-07-08T06:43:58.712Z,25.00
2018-07-08T06:46:26.558Z,25.30
2018-07-08T06:48:54.149Z,25.70
2018-07-08T06:51:21.808Z,26.00
2018-07-08T06:53:49.442Z,26.30
2018-07-08T06:56:17.071Z,26.70
2018-07-08T06:58:44.684Z,27.00
2018-07-08T07:01:50.996Z,27.40
2018-07-08T07:05:04.448Z,27.60
2018-07-08T07:10:15.756Z,28.40
2018-07-08T07:12:47.118Z,28.50
2018-07-08T07:17:42.531Z,28.90
2018-07-08T07:20:10.267Z,29.10
2018-07-08T07:22:38.260Z,29.20
2018-07-08T07:25:06.191Z,29.30
2018-07-08T07:27:33.908Z,29.40
2018-07-08T07:30:01.588Z,29.60
2018-07-08T07:32:29.237Z,29.90
2018-07-08T07:34:56.884Z,30.20
2018-07-08T07:39:52.345Z,30.90
2018-07-08T07:42:20.112Z,31.10
2018-07-08T07:44:47.768Z,31.30
2018-07-08T07:47:15.536Z,31.60
2018-07-08T07:49:43.144Z,31.80
2018-07-08T07:52:10.904Z,32.10
2018-07-08T07:54:38.535Z,32.40
2018-07-08T07:59:33.892Z,32.90
2018-07-08T08:02:01.468Z,33.20
2018-07-08T08:06:56.811Z,33.50
2018-07-08T08:09:24.539Z,33.80
2018-07-08T08:11:52.196Z,34.00
2018-07-08T08:16:48.336Z,34.50
2018-07-08T08:19:15.919Z,34.70
2018-07-08T08:21:43.602Z,35.00
2018-07-08T08:24:11.250Z,35.20
2018-07-08T08:26:38.824Z,35.50
2018-07-08T08:29:06.492Z,35.80
2018-07-08T08:31:34.111Z,36.10
2018-07-08T08:35:06.767Z,36.40
2018-07-08T08:37:40.795Z,36.70
2018-07-08T08:40:09.017Z,37.10
2018-07-08T08:42:36.726Z,37.40
2018-07-08T08:45:05.881Z,37.50
2018-07-08T08:47:33.740Z,37.70
2018-07-08T08:50:01.394Z,37.80
2018-07-08T08:52:29.195Z,37.80
2018-07-08T08:54:57.020Z,37.70
2018-07-08T08:57:24.871Z,37.60
2018-07-08T08:59:52.742Z,37.50
2018-07-08T09:02:20.695Z,37.50
2018-07-08T09:04:48.467Z,37.50
2018-07-08T09:07:17.179Z,37.50
2018-07-08T09:09:44.837Z,37.50
2018-07-08T09:12:12.758Z,37.60
2018-07-08T09:14:40.596Z,37.80
2018-07-08T09:17:08.538Z,38.00
2018-07-08T09:19:37.064Z,38.10
2018-07-08T09:22:07.533Z,38.30
2018-07-08T09:24:35.375Z,38.50
2018-07-08T09:27:03.494Z,38.60
2018-07-08T09:29:31.084Z,38.80
2018-07-08T09:31:58.664Z,39.00
2018-07-08T09:34:26.291Z,39.10
2018-07-08T09:39:22.515Z,39.30
2018-07-08T09:41:50.476Z,39.30
2018-07-08T09:44:18.321Z,39.30
2018-07-08T09:46:46.979Z,39.30
2018-07-08T09:49:14.824Z,39.30
2018-07-08T09:51:42.662Z,39.00
2018-07-08T09:54:10.489Z,38.70
2018-07-08T09:56:38.117Z,38.40
2018-07-08T09:59:05.776Z,38.00
2018-07-08T10:01:41.555Z,37.80
2018-07-08T10:04:11.356Z,37.60
2018-07-08T10:06:39.312Z,37.40
2018-07-08T10:09:09.020Z,37.10
2018-07-08T10:11:37.009Z,36.90
2018-07-08T10:14:05.418Z,36.80
2018-07-08T10:16:33.032Z,36.70
2018-07-08T10:19:00.632Z,36.70
2018-07-08T10:21:28.359Z,36.80
2018-07-08T10:23:55.968Z,36.90
2018-07-08T10:26:23.580Z,37.00
2018-07-08T10:28:51.180Z,37.10
2018-07-08T10:31:35.080Z,37.20
2018-07-08T10:34:02.947Z,37.30
2018-07-08T10:36:32.737Z,37.40
2018-07-08T10:39:00.335Z,37.30
2018-07-08T10:41:30.387Z,37.20
2018-07-08T10:43:58.104Z,37.00
2018-07-08T10:46:26.346Z,36.90
2018-07-08T10:48:53.980Z,36.80
2018-07-08T10:51:21.587Z,36.80
2018-07-08T10:53:49.496Z,36.80
2018-07-08T10:56:17.211Z,36.80
2018-07-08T10:58:44.856Z,36.80
2018-07-08T11:01:12.741Z,36.70
2018-07-08T11:03:40.440Z,36.60
2018-07-08T11:06:08.136Z,36.50
2018-07-08T11:08:35.836Z,36.20
2018-07-08T11:11:03.813Z,36.10
2018-07-08T11:13:31.472Z,35.90
2018-07-08T11:15:59.040Z,35.80
2018-07-08T11:18:26.816Z,35.60
2018-07-08T11:20:54.424Z,35.50
2018-07-08T11:23:22.043Z,35.40
2018-07-08T11:25:49.823Z,35.30
2018-07-08T11:28:17.474Z,35.10
2018-07-08T11:30:45.101Z,34.90
2018-07-08T11:35:40.878Z,34.60
2018-07-08T11:38:08.635Z,34.50
2018-07-08T11:40:42.517Z,34.30
2018-07-08T11:43:17.144Z,34.20
2018-07-08T11:45:44.989Z,34.10
2018-07-08T11:48:12.904Z,34.10
2018-07-08T11:53:08.531Z,33.80
2018-07-08T11:55:36.171Z,33.80
2018-07-08T11:58:04.228Z,33.60
2018-07-08T12:00:31.875Z,33.50
2018-07-08T12:02:59.598Z,33.40
2018-07-08T12:05:27.831Z,33.30
2018-07-08T12:07:55.465Z,33.30
2018-07-08T12:10:23.149Z,33.20
2018-07-08T12:12:51.107Z,33.10
2018-07-08T12:15:18.730Z,33.10
2018-07-08T12:17:46.392Z,33.10
2018-07-08T12:20:14.468Z,33.00
2018-07-08T12:22:42.089Z,33.00
2018-07-08T12:25:09.767Z,32.90
2018-07-08T12:27:37.714Z,33.00
2018-07-08T12:30:05.532Z,33.00
2018-07-08T12:32:33.147Z,33.10
2018-07-08T12:35:01.056Z,33.10
2018-07-08T12:37:28.672Z,33.10
2018-07-08T12:39:56.292Z,33.00
2018-07-08T12:42:24.576Z,33.00
2018-07-08T12:44:52.631Z,32.90
2018-07-08T12:47:20.185Z,32.90
2018-07-08T12:49:47.789Z,32.80
2018-07-08T12:52:15.546Z,32.80
2018-07-08T12:54:43.140Z,32.70
2018-07-08T12:57:10.848Z,32.60
2018-07-08T12:59:38.580Z,32.60
2018-07-08T13:02:06.522Z,32.50
2018-07-08T13:04:34.223Z,32.50
2018-07-08T13:07:02.384Z,32.50
2018-07-08T13:09:30.090Z,32.50
2018-07-08T13:11:57.712Z,32.60
2018-07-08T13:14:25.667Z,32.60
2018-07-08T13:16:53.344Z,32.60
2018-07-08T13:19:20.985Z,32.60
2018-07-08T13:21:49.202Z,32.60
2018-07-08T13:24:16.826Z,32.60
2018-07-08T13:26:44.455Z,32.60
2018-07-08T13:29:12.417Z,32.60
2018-07-08T13:31:39.899Z,32.60
2018-07-08T13:34:07.596Z,32.60
2018-07-08T13:36:35.181Z,32.60
2018-07-08T13:39:04.677Z,32.60
2018-07-08T13:44:00.567Z,32.70
2018-07-08T13:46:28.279Z,32.70
2018-07-08T13:48:55.961Z,32.60
2018-07-08T13:51:23.609Z,32.70
2018-07-08T13:53:51.392Z,32.70
2018-07-08T13:56:19.048Z,32.70
2018-07-08T13:58:46.756Z,32.70
2018-07-08T14:01:14.440Z,32.80
2018-07-08T14:03:42.052Z,32.80
2018-07-08T14:06:09.760Z,32.80
2018-07-08T14:08:37.472Z,32.80
2018-07-08T14:11:05.128Z,32.80
2018-07-08T14:13:33.076Z,32.80
2018-07-08T14:16:00.724Z,32.80
2018-07-08T14:18:28.367Z,32.80
2018-07-08T14:20:56.388Z,32.80
2018-07-08T14:23:24.016Z,32.80
2018-07-08T14:25:52.940Z,32.70
2018-07-08T14:28:21.415Z,32.60
2018-07-08T14:33:17.267Z,32.50
2018-07-08T14:35:45.170Z,32.40
2018-07-08T14:38:12.804Z,32.30
2018-07-08T14:40:40.493Z,32.20
2018-07-08T14:43:08.192Z,32.10
2018-07-08T14:45:36.335Z,32.00
2018-07-08T14:48:04.268Z,31.90
2018-07-08T14:52:59.947Z,31.80
2018-07-08T14:55:27.572Z,31.70
2018-07-08T14:57:55.219Z,31.60
2018-07-08T15:00:23.126Z,31.60
2018-07-08T15:02:50.735Z,31.50
2018-07-08T15:05:18.412Z,31.50
2018-07-08T15:07:47.991Z,31.50
2018-07-08T15:10:15.631Z,31.50
2018-07-08T15:12:43.316Z,31.50
2018-07-08T15:15:11.196Z,31.50
2018-07-08T15:17:38.876Z,31.50
2018-07-08T15:20:06.554Z,31.50
2018-07-08T15:22:34.447Z,31.50
2018-07-08T15:25:02.197Z,31.50
2018-07-08T15:27:29.872Z,31.50
2018-07-08T15:29:57.709Z,31.50
2018-07-08T15:32:25.431Z,31.50
2018-07-08T15:34:53.357Z,31.50
2018-07-08T15:37:21.042Z,31.40
2018-07-08T15:39:48.680Z,31.40
2018-07-08T15:42:16.959Z,31.40
2018-07-08T15:47:12.449Z,31.30
2018-07-08T15:49:47.485Z,31.30
2018-07-08T15:52:15.084Z,31.30
2018-07-08T15:54:42.755Z,31.20
2018-07-08T15:57:10.555Z,31.20
2018-07-08T15:59:38.246Z,31.20
2018-07-08T16:02:05.951Z,31.20
2018-07-08T16:04:33.957Z,31.10
2018-07-08T16:07:01.605Z,31.10
2018-07-08T16:09:29.797Z,31.10
2018-07-08T16:11:57.536Z,31.00
2018-07-08T16:14:25.180Z,31.00
2018-07-08T16:16:52.996Z,30.90
2018-07-08T16:21:48.327Z,30.90
2018-07-08T16:26:43.945Z,30.70
2018-07-08T16:31:39.482Z,30.60
2018-07-08T16:34:07.582Z,30.50
2018-07-08T16:36:35.275Z,30.50
2018-07-08T16:39:03.664Z,30.40
2018-07-08T16:41:31.819Z,30.40
2018-07-08T16:44:00.324Z,30.40
2018-07-08T16:46:28.020Z,30.40
2018-07-08T16:48:55.659Z,30.40
2018-07-08T16:51:23.516Z,30.40
2018-07-08T16:53:51.208Z,30.30
2018-07-08T16:56:18.981Z,30.30
2018-07-08T16:58:46.837Z,30.30
2018-07-08T17:01:14.475Z,30.20
2018-07-08T17:03:41.960Z,30.20
2018-07-08T17:06:09.831Z,30.20
2018-07-08T17:08:37.472Z,30.10
2018-07-08T17:11:05.185Z,30.10
2018-07-08T17:13:33.052Z,30.10
2018-07-08T17:16:00.786Z,30.00
2018-07-08T17:18:28.479Z,30.00
2018-07-08T17:20:56.571Z,30.00
2018-07-08T17:23:24.211Z,30.10
2018-07-08T17:25:51.831Z,30.10
2018-07-08T17:28:20.031Z,30.10
2018-07-08T17:30:47.688Z,30.10
2018-07-08T17:33:15.275Z,30.10
2018-07-08T17:35:43.224Z,30.20
2018-07-08T17:38:11.276Z,30.20
2018-07-08T17:40:39.012Z,30.20
2018-07-08T17:43:06.694Z,30.20
2018-07-08T17:45:34.333Z,30.20
2018-07-08T17:50:29.900Z,30.20
2018-07-08T17:52:57.527Z,30.20
2018-07-08T17:57:53.508Z,30.20
2018-07-08T18:00:21.161Z,30.10
2018-07-08T18:02:48.811Z,30.00
2018-07-08T18:05:16.226Z,30.00
2018-07-08T18:07:44.273Z,30.00
2018-07-08T18:10:11.921Z,29.90
2018-07-08T18:15:09.621Z,29.80
2018-07-08T18:17:37.347Z,29.70
2018-07-08T18:20:04.995Z,29.70
2018-07-08T18:22:32.842Z,29.70
2018-07-08T18:25:00.597Z,29.60
2018-07-08T18:29:56.363Z,29.40
2018-07-08T18:32:23.984Z,29.40
2018-07-08T18:34:51.669Z,29.30
2018-07-08T18:39:47.437Z,29.20
2018-07-08T18:42:15.121Z,29.10
2018-07-08T18:44:42.990Z,29.00
2018-07-08T18:47:10.907Z,28.90
2018-07-08T18:49:38.657Z,28.90
2018-07-08T18:52:08.440Z,28.80
2018-07-08T18:54:36.204Z,28.70
2018-07-08T18:57:07.727Z,28.60
2018-07-08T18:59:36.037Z,28.60
2018-07-08T19:02:03.708Z,28.50
2018-07-08T19:04:31.403Z,28.40
2018-07-08T19:06:59.951Z,28.30
2018-07-08T19:09:27.657Z,28.20
2018-07-08T19:11:55.304Z,28.10
2018-07-08T19:14:23.012Z,28.10
2018-07-08T19:16:50.713Z,28.00
2018-07-08T19:21:46.363Z,27.90
2018-07-08T19:24:14.197Z,27.80
2018-07-08T19:26:41.838Z,27.80
2018-07-08T19:29:09.496Z,27.70
2018-07-08T19:31:37.457Z,27.60
2018-07-08T19:34:05.180Z,27.60
2018-07-08T19:39:01.927Z,27.40
2018-07-08T19:41:29.524Z,27.40
2018-07-08T19:43:58.122Z,27.30
2018-07-08T19:46:26.691Z,27.30
2018-07-08T19:48:54.407Z,27.20
2018-07-08T19:51:22.149Z,27.20
2018-07-08T19:56:18.149Z,27.10
2018-07-08T19:58:45.838Z,27.10
2018-07-08T20:01:13.560Z,27.00
2018-07-08T20:03:41.419Z,27.00
2018-07-08T20:06:09.187Z,27.00
2018-07-08T20:08:36.799Z,27.00
2018-07-08T20:11:04.652Z,26.90
2018-07-08T20:13:32.560Z,26.90
2018-07-08T20:18:27.974Z,26.90
2018-07-08T20:20:55.808Z,26.80
2018-07-08T20:23:23.448Z,26.80
2018-07-08T20:25:51.344Z,26.80
2018-07-08T20:28:18.993Z,26.80
2018-07-08T20:30:46.632Z,26.80
2018-07-08T20:33:14.458Z,26.80
2018-07-08T20:35:42.163Z,26.80
2018-07-08T20:38:09.887Z,26.70
2018-07-08T20:40:37.935Z,26.70
2018-07-08T20:43:06.952Z,26.70
2018-07-08T20:45:35.057Z,26.70
2018-07-08T20:48:03.253Z,26.70
2018-07-08T20:50:30.894Z,26.60
2018-07-08T20:52:58.567Z,26.60
2018-07-08T20:55:26.585Z,26.60
2018-07-08T20:57:54.420Z,26.50
2018-07-08T21:00:22.494Z,26.50
2018-07-08T21:02:50.376Z,26.50
2018-07-08T21:05:19.436Z,26.50
2018-07-08T21:10:15.329Z,26.40
2018-07-08T21:12:43.032Z,26.50
2018-07-08T21:15:10.956Z,26.40
2018-07-08T21:17:38.644Z,26.40
2018-07-08T21:20:07.160Z,26.40
2018-07-08T21:22:34.780Z,26.40
2018-07-08T21:29:58.292Z,26.30
2018-07-08T21:32:26.656Z,26.20
2018-07-08T21:34:54.337Z,26.20
2018-07-08T21:37:22.073Z,26.20
2018-07-08T21:39:50.427Z,26.10
2018-07-08T21:42:18.179Z,26.10
2018-07-08T21:47:14.826Z,26.00
2018-07-08T21:49:42.495Z,26.00
2018-07-08T21:52:10.111Z,26.00
2018-07-08T21:54:37.920Z,25.90
2018-07-08T21:57:05.644Z,25.90
2018-07-08T22:02:04.124Z,25.80
2018-07-08T22:04:31.759Z,25.80
2018-07-08T22:07:05.096Z,25.80
2018-07-08T22:09:32.836Z,25.80
2018-07-08T22:12:00.462Z,25.80
2018-07-08T22:14:28.560Z,25.80
2018-07-08T22:16:56.294Z,25.80
2018-07-08T22:19:24.049Z,25.80
2018-07-08T22:21:52.232Z,25.70
2018-07-08T22:24:19.837Z,25.70
2018-07-08T22:26:47.120Z,25.70
2018-07-08T22:29:14.872Z,25.70
2018-07-08T22:31:42.493Z,25.70
2018-07-08T22:34:10.380Z,25.70
2018-07-08T22:36:38.202Z,25.60
2018-07-08T22:39:07.280Z,25.70
2018-07-08T22:41:35.321Z,25.60
2018-07-08T22:44:03.104Z,25.60
2018-07-08T22:51:26.556Z,25.50
2018-07-08T22:53:54.567Z,25.50
2018-07-08T22:56:22.653Z,25.50
2018-07-08T22:58:51.097Z,25.50
2018-07-08T23:01:30.766Z,25.50
2018-07-08T23:04:00.167Z,25.50
2018-07-08T23:06:27.863Z,25.50
2018-07-08T23:08:55.663Z,25.50
2018-07-08T23:11:25.087Z,25.50
2018-07-08T23:13:53.712Z,25.50
2018-07-08T23:16:21.901Z,25.50
2018-07-08T23:21:17.894Z,25.40
2018-07-08T23:23:45.582Z,25.50
2018-07-08T23:26:13.653Z,25.50
2018-07-08T23:28:41.371Z,25.50
2018-07-08T23:31:09.599Z,25.50
2018-07-08T23:33:37.668Z,25.50
2018-07-08T23:36:05.995Z,25.50
2018-07-08T23:38:33.940Z,25.40
2018-07-08T23:41:02.884Z,25.40
2018-07-08T23:45:58.740Z,25.40
2018-07-08T23:50:54.448Z,25.40
2018-07-08T23:53:22.111Z,25.30
2018-07-08T23:55:50.052Z,25.30
2018-07-08T23:58:17.692Z,25.30
